sensor_id;sensor_type;location;lat;lon;timestamp;temperature;humidity
65584;DHT22;70321;43.592;1.456;2023-07-30T00:00:58;24.09;70.51
65584;DHT22;70321;43.592;1.456;2023-07-30T00:03:25;24.06;70.68
65584;DHT22;70321;43.592;1.456;2023-07-30T00:05:56;24.02;70.66
65584;DHT22;70321;43.592;1.456;2023-07-30T00:08:22;23.94;70.40
65584;DHT22;70321;43.592;1.456;2023-07-30T00:10:49;23.86;70.15
65584;DHT22;70321;43.592;1.456;2023-07-30T00:13:16;23.84;70.10
65584;DHT22;70321;43.592;1.456;2023-07-30T00:15:46;23.77;70.20
65584;DHT22;70321;43.592;1.456;2023-07-30T00:18:14;23.77;70.27
65584;DHT22;70321;43.592;1.456;2023-07-30T00:20:41;23.70;69.84
65584;DHT22;70321;43.592;1.456;2023-07-30T00:23:07;23.70;70.40
65584;DHT22;70321;43.592;1.456;2023-07-30T00:25:34;23.67;70.22
65584;DHT22;70321;43.592;1.456;2023-07-30T00:28:01;23.66;70.34
65584;DHT22;70321;43.592;1.456;2023-07-30T00:30:27;23.63;69.99
65584;DHT22;70321;43.592;1.456;2023-07-30T00:32:54;23.60;70.29
65584;DHT22;70321;43.592;1.456;2023-07-30T00:35:21;23.62;70.82
65584;DHT22;70321;43.592;1.456;2023-07-30T00:37:48;23.59;69.90
65584;DHT22;70321;43.592;1.456;2023-07-30T00:40:16;23.53;69.15
65584;DHT22;70321;43.592;1.456;2023-07-30T00:42:43;23.52;69.46
65584;DHT22;70321;43.592;1.456;2023-07-30T00:45:10;23.45;69.32
65584;DHT22;70321;43.592;1.456;2023-07-30T00:47:37;23.43;69.38
65584;DHT22;70321;43.592;1.456;2023-07-30T00:50:06;23.41;69.42
65584;DHT22;70321;43.592;1.456;2023-07-30T00:52:33;23.39;69.14
65584;DHT22;70321;43.592;1.456;2023-07-30T00:55:05;23.35;69.00
65584;DHT22;70321;43.592;1.456;2023-07-30T00:57:34;23.32;69.39
65584;DHT22;70321;43.592;1.456;2023-07-30T01:00:01;23.30;70.06
65584;DHT22;70321;43.592;1.456;2023-07-30T01:02:31;23.29;70.16
65584;DHT22;70321;43.592;1.456;2023-07-30T01:05:00;23.26;70.06
65584;DHT22;70321;43.592;1.456;2023-07-30T01:07:27;23.23;69.82
65584;DHT22;70321;43.592;1.456;2023-07-30T01:09:54;23.22;70.18
65584;DHT22;70321;43.592;1.456;2023-07-30T01:12:21;23.18;70.15
65584;DHT22;70321;43.592;1.456;2023-07-30T01:14:49;23.19;70.20
65584;DHT22;70321;43.592;1.456;2023-07-30T01:17:16;23.18;70.34
65584;DHT22;70321;43.592;1.456;2023-07-30T01:19:43;23.20;70.92
65584;DHT22;70321;43.592;1.456;2023-07-30T01:22:10;23.19;70.73
65584;DHT22;70321;43.592;1.456;2023-07-30T01:24:37;23.19;70.89
65584;DHT22;70321;43.592;1.456;2023-07-30T01:27:06;23.14;70.95
65584;DHT22;70321;43.592;1.456;2023-07-30T01:29:53;23.09;71.16
65584;DHT22;70321;43.592;1.456;2023-07-30T01:32:25;23.12;71.45
65584;DHT22;70321;43.592;1.456;2023-07-30T01:34:54;23.11;70.68
65584;DHT22;70321;43.592;1.456;2023-07-30T01:37:22;23.07;71.06
65584;DHT22;70321;43.592;1.456;2023-07-30T01:39:49;23.01;71.17
65584;DHT22;70321;43.592;1.456;2023-07-30T01:42:16;22.99;71.40
65584;DHT22;70321;43.592;1.456;2023-07-30T01:44:43;22.97;71.47
65584;DHT22;70321;43.592;1.456;2023-07-30T01:47:09;23.01;71.90
65584;DHT22;70321;43.592;1.456;2023-07-30T01:49:36;22.99;72.47
65584;DHT22;70321;43.592;1.456;2023-07-30T01:52:03;23.04;71.66
65584;DHT22;70321;43.592;1.456;2023-07-30T01:54:30;23.02;72.19
65584;DHT22;70321;43.592;1.456;2023-07-30T01:56:57;23.01;72.04
65584;DHT22;70321;43.592;1.456;2023-07-30T01:59:24;23.01;72.04
65584;DHT22;70321;43.592;1.456;2023-07-30T02:01:51;23.01;71.75
65584;DHT22;70321;43.592;1.456;2023-07-30T02:04:17;23.04;72.50
65584;DHT22;70321;43.592;1.456;2023-07-30T02:06:44;23.05;72.16
65584;DHT22;70321;43.592;1.456;2023-07-30T02:09:11;23.07;71.99
65584;DHT22;70321;43.592;1.456;2023-07-30T02:11:37;23.05;72.11
65584;DHT22;70321;43.592;1.456;2023-07-30T02:14:05;23.04;72.29
65584;DHT22;70321;43.592;1.456;2023-07-30T02:16:31;23.05;72.42
65584;DHT22;70321;43.592;1.456;2023-07-30T02:18:58;23.04;71.90
65584;DHT22;70321;43.592;1.456;2023-07-30T02:21:25;22.99;71.63
65584;DHT22;70321;43.592;1.456;2023-07-30T02:23:51;22.91;70.63
65584;DHT22;70321;43.592;1.456;2023-07-30T02:26:18;22.88;71.22
65584;DHT22;70321;43.592;1.456;2023-07-30T02:28:45;22.88;71.30
65584;DHT22;70321;43.592;1.456;2023-07-30T02:31:11;22.81;71.80
65584;DHT22;70321;43.592;1.456;2023-07-30T02:33:38;22.79;71.18
65584;DHT22;70321;43.592;1.456;2023-07-30T02:36:05;22.74;71.52
65584;DHT22;70321;43.592;1.456;2023-07-30T02:38:31;22.69;71.12
65584;DHT22;70321;43.592;1.456;2023-07-30T02:40:58;22.64;71.33
65584;DHT22;70321;43.592;1.456;2023-07-30T02:43:25;22.67;72.00
65584;DHT22;70321;43.592;1.456;2023-07-30T02:45:51;22.64;70.96
65584;DHT22;70321;43.592;1.456;2023-07-30T02:48:18;22.64;70.67
65584;DHT22;70321;43.592;1.456;2023-07-30T02:50:45;22.54;70.53
65584;DHT22;70321;43.592;1.456;2023-07-30T02:53:12;22.48;71.41
65584;DHT22;70321;43.592;1.456;2023-07-30T02:55:38;22.47;71.35
65584;DHT22;70321;43.592;1.456;2023-07-30T02:58:05;22.47;71.67
65584;DHT22;70321;43.592;1.456;2023-07-30T03:00:32;22.41;70.86
65584;DHT22;70321;43.592;1.456;2023-07-30T03:02:58;22.39;70.81
65584;DHT22;70321;43.592;1.456;2023-07-30T03:05:26;22.39;71.31
65584;DHT22;70321;43.592;1.456;2023-07-30T03:07:54;22.39;71.85
65584;DHT22;70321;43.592;1.456;2023-07-30T03:10:20;22.40;70.92
65584;DHT22;70321;43.592;1.456;2023-07-30T03:12:47;22.37;71.67
65584;DHT22;70321;43.592;1.456;2023-07-30T03:15:14;22.39;72.01
65584;DHT22;70321;43.592;1.456;2023-07-30T03:17:40;22.43;71.88
65584;DHT22;70321;43.592;1.456;2023-07-30T03:20:07;22.43;71.92
65584;DHT22;70321;43.592;1.456;2023-07-30T03:22:35;22.39;71.48
65584;DHT22;70321;43.592;1.456;2023-07-30T03:25:02;22.36;71.41
65584;DHT22;70321;43.592;1.456;2023-07-30T03:27:29;22.33;71.78
65584;DHT22;70321;43.592;1.456;2023-07-30T03:29:55;22.29;71.86
65584;DHT22;70321;43.592;1.456;2023-07-30T03:32:22;22.29;71.92
65584;DHT22;70321;43.592;1.456;2023-07-30T03:34:49;22.21;71.65
65584;DHT22;70321;43.592;1.456;2023-07-30T03:37:16;22.24;72.24
65584;DHT22;70321;43.592;1.456;2023-07-30T03:39:42;22.23;72.16
65584;DHT22;70321;43.592;1.456;2023-07-30T03:42:09;22.20;72.57
65584;DHT22;70321;43.592;1.456;2023-07-30T03:44:36;22.21;72.67
65584;DHT22;70321;43.592;1.456;2023-07-30T03:47:02;22.20;72.77
65584;DHT22;70321;43.592;1.456;2023-07-30T03:49:29;22.21;73.22
65584;DHT22;70321;43.592;1.456;2023-07-30T03:51:56;22.21;73.13
65584;DHT22;70321;43.592;1.456;2023-07-30T03:54:22;22.20;73.40
65584;DHT22;70321;43.592;1.456;2023-07-30T03:56:49;22.14;73.30
65584;DHT22;70321;43.592;1.456;2023-07-30T03:59:16;22.10;73.40
65584;DHT22;70321;43.592;1.456;2023-07-30T04:01:42;22.03;73.40
65584;DHT22;70321;43.592;1.456;2023-07-30T04:04:09;21.93;73.04
65584;DHT22;70321;43.592;1.456;2023-07-30T04:06:36;21.93;73.61
65584;DHT22;70321;43.592;1.456;2023-07-30T04:09:02;21.83;73.64
65584;DHT22;70321;43.592;1.456;2023-07-30T04:11:29;21.83;73.94
65584;DHT22;70321;43.592;1.456;2023-07-30T04:13:56;21.79;73.58
65584;DHT22;70321;43.592;1.456;2023-07-30T04:16:23;21.73;73.70
65584;DHT22;70321;43.592;1.456;2023-07-30T04:18:50;21.67;73.94
65584;DHT22;70321;43.592;1.456;2023-07-30T04:21:16;21.60;74.26
65584;DHT22;70321;43.592;1.456;2023-07-30T04:23:43;21.55;74.38
65584;DHT22;70321;43.592;1.456;2023-07-30T04:26:10;21.48;74.59
65584;DHT22;70321;43.592;1.456;2023-07-30T04:28:36;21.41;74.85
65584;DHT22;70321;43.592;1.456;2023-07-30T04:31:03;21.36;75.16
65584;DHT22;70321;43.592;1.456;2023-07-30T04:33:30;21.34;75.19
65584;DHT22;70321;43.592;1.456;2023-07-30T04:35:56;21.34;75.88
65584;DHT22;70321;43.592;1.456;2023-07-30T04:38:23;21.36;75.99
65584;DHT22;70321;43.592;1.456;2023-07-30T04:40:50;21.34;75.63
65584;DHT22;70321;43.592;1.456;2023-07-30T04:43:16;21.42;75.67
65584;DHT22;70321;43.592;1.456;2023-07-30T04:45:43;21.43;75.57
65584;DHT22;70321;43.592;1.456;2023-07-30T04:48:11;21.39;75.23
65584;DHT22;70321;43.592;1.456;2023-07-30T04:50:38;21.35;75.22
65584;DHT22;70321;43.592;1.456;2023-07-30T04:53:06;21.32;75.75
65584;DHT22;70321;43.592;1.456;2023-07-30T04:55:33;21.28;75.67
65584;DHT22;70321;43.592;1.456;2023-07-30T04:58:00;21.24;75.74
65584;DHT22;70321;43.592;1.456;2023-07-30T05:00:27;21.18;76.08
65584;DHT22;70321;43.592;1.456;2023-07-30T05:02:53;21.21;76.12
65584;DHT22;70321;43.592;1.456;2023-07-30T05:05:20;21.15;76.02
65584;DHT22;70321;43.592;1.456;2023-07-30T05:07:47;21.12;76.03
65584;DHT22;70321;43.592;1.456;2023-07-30T05:10:13;21.15;76.31
65584;DHT22;70321;43.592;1.456;2023-07-30T05:12:42;21.16;76.45
65584;DHT22;70321;43.592;1.456;2023-07-30T05:15:09;21.24;76.46
65584;DHT22;70321;43.592;1.456;2023-07-30T05:17:36;21.28;76.08
65584;DHT22;70321;43.592;1.456;2023-07-30T05:20:03;21.28;76.12
65584;DHT22;70321;43.592;1.456;2023-07-30T05:22:29;21.28;75.97
65584;DHT22;70321;43.592;1.456;2023-07-30T05:24:56;21.25;76.25
65584;DHT22;70321;43.592;1.456;2023-07-30T05:27:23;21.26;76.33
65584;DHT22;70321;43.592;1.456;2023-07-30T05:29:49;21.25;76.05
65584;DHT22;70321;43.592;1.456;2023-07-30T05:32:16;21.29;75.95
65584;DHT22;70321;43.592;1.456;2023-07-30T05:34:43;21.29;75.96
65584;DHT22;70321;43.592;1.456;2023-07-30T05:37:09;21.29;76.15
65584;DHT22;70321;43.592;1.456;2023-07-30T05:39:36;21.31;75.87
65584;DHT22;70321;43.592;1.456;2023-07-30T05:42:03;21.32;75.89
65584;DHT22;70321;43.592;1.456;2023-07-30T05:44:30;21.32;75.89
65584;DHT22;70321;43.592;1.456;2023-07-30T05:46:57;21.34;75.91
65584;DHT22;70321;43.592;1.456;2023-07-30T05:49:24;21.35;75.92
65584;DHT22;70321;43.592;1.456;2023-07-30T05:51:51;21.36;75.83
65584;DHT22;70321;43.592;1.456;2023-07-30T05:54:18;21.39;76.03
65584;DHT22;70321;43.592;1.456;2023-07-30T05:56:44;21.43;75.86
65584;DHT22;70321;43.592;1.456;2023-07-30T05:59:11;21.42;75.09
65584;DHT22;70321;43.592;1.456;2023-07-30T06:01:38;21.35;74.93
65584;DHT22;70321;43.592;1.456;2023-07-30T06:04:05;21.35;75.48
65584;DHT22;70321;43.592;1.456;2023-07-30T06:06:32;21.38;75.65
65584;DHT22;70321;43.592;1.456;2023-07-30T06:08:58;21.39;75.67
65584;DHT22;70321;43.592;1.456;2023-07-30T06:11:25;21.42;75.61
65584;DHT22;70321;43.592;1.456;2023-07-30T06:13:52;21.43;75.97
65584;DHT22;70321;43.592;1.456;2023-07-30T06:16:19;21.46;75.88
65584;DHT22;70321;43.592;1.456;2023-07-30T06:18:47;21.52;75.67
65584;DHT22;70321;43.592;1.456;2023-07-30T06:21:13;21.52;75.28
65584;DHT22;70321;43.592;1.456;2023-07-30T06:23:40;21.55;74.94
65584;DHT22;70321;43.592;1.456;2023-07-30T06:26:07;21.58;74.97
65584;DHT22;70321;43.592;1.456;2023-07-30T06:28:33;21.60;74.87
65584;DHT22;70321;43.592;1.456;2023-07-30T06:31:01;21.60;74.90
65584;DHT22;70321;43.592;1.456;2023-07-30T06:33:28;21.60;74.83
65584;DHT22;70321;43.592;1.456;2023-07-30T06:35:58;21.60;74.67
65584;DHT22;70321;43.592;1.456;2023-07-30T06:38:25;21.55;74.11
65584;DHT22;70321;43.592;1.456;2023-07-30T06:40:55;21.49;74.57
65584;DHT22;70321;43.592;1.456;2023-07-30T06:43:24;21.48;74.61
65584;DHT22;70321;43.592;1.456;2023-07-30T06:45:51;21.46;74.89
65584;DHT22;70321;43.592;1.456;2023-07-30T06:48:18;21.50;74.54
65584;DHT22;70321;43.592;1.456;2023-07-30T06:50:44;21.46;74.15
65584;DHT22;70321;43.592;1.456;2023-07-30T06:53:11;21.45;73.95
65584;DHT22;70321;43.592;1.456;2023-07-30T06:55:38;21.46;74.16
65584;DHT22;70321;43.592;1.456;2023-07-30T06:58:04;21.50;74.69
65584;DHT22;70321;43.592;1.456;2023-07-30T07:00:31;21.55;74.99
65584;DHT22;70321;43.592;1.456;2023-07-30T07:02:58;21.63;74.42
65584;DHT22;70321;43.592;1.456;2023-07-30T07:05:25;21.70;74.25
65584;DHT22;70321;43.592;1.456;2023-07-30T07:07:52;21.72;72.80
65584;DHT22;70321;43.592;1.456;2023-07-30T07:10:18;21.65;72.55
65584;DHT22;70321;43.592;1.456;2023-07-30T07:12:45;21.67;73.09
65584;DHT22;70321;43.592;1.456;2023-07-30T07:15:12;21.70;73.35
65584;DHT22;70321;43.592;1.456;2023-07-30T07:17:39;21.78;73.94
65584;DHT22;70321;43.592;1.456;2023-07-30T07:20:06;21.78;72.36
65584;DHT22;70321;43.592;1.456;2023-07-30T07:22:34;21.76;72.22
65584;DHT22;70321;43.592;1.456;2023-07-30T07:25:00;21.78;72.34
65584;DHT22;70321;43.592;1.456;2023-07-30T07:27:27;21.79;73.15
65584;DHT22;70321;43.592;1.456;2023-07-30T07:29:54;21.88;73.09
65584;DHT22;70321;43.592;1.456;2023-07-30T07:32:20;21.99;73.26
65584;DHT22;70321;43.592;1.456;2023-07-30T07:34:48;22.10;73.48
65584;DHT22;70321;43.592;1.456;2023-07-30T07:37:15;22.17;71.68
65584;DHT22;70321;43.592;1.456;2023-07-30T07:39:43;22.18;71.65
65584;DHT22;70321;43.592;1.456;2023-07-30T07:42:10;22.20;71.95
65584;DHT22;70321;43.592;1.456;2023-07-30T07:44:37;22.25;72.57
65584;DHT22;70321;43.592;1.456;2023-07-30T07:47:04;22.27;70.86
65584;DHT22;70321;43.592;1.456;2023-07-30T07:49:30;22.21;70.52
65584;DHT22;70321;43.592;1.456;2023-07-30T07:51:57;22.13;70.75
65584;DHT22;70321;43.592;1.456;2023-07-30T07:54:24;22.10;70.98
65584;DHT22;70321;43.592;1.456;2023-07-30T07:56:50;22.12;72.02
65584;DHT22;70321;43.592;1.456;2023-07-30T07:59:17;22.12;72.27
65584;DHT22;70321;43.592;1.456;2023-07-30T08:01:43;22.14;72.55
65584;DHT22;70321;43.592;1.456;2023-07-30T08:04:10;22.18;72.47
65584;DHT22;70321;43.592;1.456;2023-07-30T08:06:37;22.24;71.45
65584;DHT22;70321;43.592;1.456;2023-07-30T08:09:04;22.24;71.33
65584;DHT22;70321;43.592;1.456;2023-07-30T08:11:31;22.23;70.85
65584;DHT22;70321;43.592;1.456;2023-07-30T08:13:58;22.25;71.65
65584;DHT22;70321;43.592;1.456;2023-07-30T08:16:24;22.34;71.71
65584;DHT22;70321;43.592;1.456;2023-07-30T08:18:52;22.40;71.03
65584;DHT22;70321;43.592;1.456;2023-07-30T08:21:18;22.37;68.42
65584;DHT22;70321;43.592;1.456;2023-07-30T08:23:47;22.43;69.72
65584;DHT22;70321;43.592;1.456;2023-07-30T08:26:13;22.50;70.02
65584;DHT22;70321;43.592;1.456;2023-07-30T08:28:40;22.58;69.35
65584;DHT22;70321;43.592;1.456;2023-07-30T08:31:07;22.69;69.78
65584;DHT22;70321;43.592;1.456;2023-07-30T08:33:33;22.78;69.93
65584;DHT22;70321;43.592;1.456;2023-07-30T08:36:00;22.85;68.96
65584;DHT22;70321;43.592;1.456;2023-07-30T08:38:28;22.91;69.17
65584;DHT22;70321;43.592;1.456;2023-07-30T08:40:55;22.95;67.88
65584;DHT22;70321;43.592;1.456;2023-07-30T08:43:21;22.85;65.16
65584;DHT22;70321;43.592;1.456;2023-07-30T08:45:48;22.72;63.83
65584;DHT22;70321;43.592;1.456;2023-07-30T08:48:15;22.68;65.03
65584;DHT22;70321;43.592;1.456;2023-07-30T08:50:42;22.69;66.20
65584;DHT22;70321;43.592;1.456;2023-07-30T08:53:09;22.72;65.58
65584;DHT22;70321;43.592;1.456;2023-07-30T08:55:39;22.81;65.41
65584;DHT22;70321;43.592;1.456;2023-07-30T08:58:07;22.85;66.12
65584;DHT22;70321;43.592;1.456;2023-07-30T09:00:36;22.83;63.16
65584;DHT22;70321;43.592;1.456;2023-07-30T09:03:04;22.79;62.51
65584;DHT22;70321;43.592;1.456;2023-07-30T09:05:31;22.83;64.71
65584;DHT22;70321;43.592;1.456;2023-07-30T09:07:58;22.85;64.59
65584;DHT22;70321;43.592;1.456;2023-07-30T09:10:26;22.87;63.05
65584;DHT22;70321;43.592;1.456;2023-07-30T09:12:55;22.90;63.24
65584;DHT22;70321;43.592;1.456;2023-07-30T09:15:40;22.92;63.64
65584;DHT22;70321;43.592;1.456;2023-07-30T09:18:07;22.98;62.73
65584;DHT22;70321;43.592;1.456;2023-07-30T09:20:39;23.04;64.22
65584;DHT22;70321;43.592;1.456;2023-07-30T09:23:07;23.02;60.21
65584;DHT22;70321;43.592;1.456;2023-07-30T09:25:35;22.95;59.25
65584;DHT22;70321;43.592;1.456;2023-07-30T09:28:02;22.97;60.90
65584;DHT22;70321;43.592;1.456;2023-07-30T09:30:29;22.97;60.44
65584;DHT22;70321;43.592;1.456;2023-07-30T09:32:57;22.98;60.11
65584;DHT22;70321;43.592;1.456;2023-07-30T09:35:25;22.99;59.24
65584;DHT22;70321;43.592;1.456;2023-07-30T09:37:59;22.95;59.25
65584;DHT22;70321;43.592;1.456;2023-07-30T09:40:36;22.92;59.46
65584;DHT22;70321;43.592;1.456;2023-07-30T09:43:04;22.94;60.37
65584;DHT22;70321;43.592;1.456;2023-07-30T09:45:35;22.94;60.39
65584;DHT22;70321;43.592;1.456;2023-07-30T09:48:04;23.02;61.67
65584;DHT22;70321;43.592;1.456;2023-07-30T09:50:36;23.12;62.38
65584;DHT22;70321;43.592;1.456;2023-07-30T09:53:04;23.23;61.54
65584;DHT22;70321;43.592;1.456;2023-07-30T09:55:31;23.28;62.40
65584;DHT22;70321;43.592;1.456;2023-07-30T09:57:57;23.30;61.97
65584;DHT22;70321;43.592;1.456;2023-07-30T10:00:24;23.37;61.79
65584;DHT22;70321;43.592;1.456;2023-07-30T10:02:52;23.41;62.37
65584;DHT22;70321;43.592;1.456;2023-07-30T10:05:23;23.42;60.79
65584;DHT22;70321;43.592;1.456;2023-07-30T10:07:53;23.41;60.53
65584;DHT22;70321;43.592;1.456;2023-07-30T10:10:21;23.41;60.38
65584;DHT22;70321;43.592;1.456;2023-07-30T10:12:51;23.39;60.58
65584;DHT22;70321;43.592;1.456;2023-07-30T10:15:19;23.35;59.86
65584;DHT22;70321;43.592;1.456;2023-07-30T10:17:56;23.33;60.07
65584;DHT22;70321;43.592;1.456;2023-07-30T10:20:27;23.43;61.44
65584;DHT22;70321;43.592;1.456;2023-07-30T10:22:57;23.55;61.36
65584;DHT22;70321;43.592;1.456;2023-07-30T10:28:01;23.74;60.96
65584;DHT22;70321;43.592;1.456;2023-07-30T10:30:31;23.86;60.52
65584;DHT22;70321;43.592;1.456;2023-07-30T10:33:02;23.94;61.48
65584;DHT22;70321;43.592;1.456;2023-07-30T10:35:45;24.00;59.38
65584;DHT22;70321;43.592;1.456;2023-07-30T10:38:20;24.00;58.30
65584;DHT22;70321;43.592;1.456;2023-07-30T10:41:11;24.04;58.87
65584;DHT22;70321;43.592;1.456;2023-07-30T10:43:49;24.09;58.84
65584;DHT22;70321;43.592;1.456;2023-07-30T10:46:18;24.09;58.38
65584;DHT22;70321;43.592;1.456;2023-07-30T10:48:47;24.10;60.25
65584;DHT22;70321;43.592;1.456;2023-07-30T10:51:15;24.17;61.06
65584;DHT22;70321;43.592;1.456;2023-07-30T10:53:47;24.26;61.69
65584;DHT22;70321;43.592;1.456;2023-07-30T10:56:18;24.31;61.10
65584;DHT22;70321;43.592;1.456;2023-07-30T10:58:49;24.31;59.18
65584;DHT22;70321;43.592;1.456;2023-07-30T11:01:17;24.34;58.34
65584;DHT22;70321;43.592;1.456;2023-07-30T11:03:48;24.40;59.30
65584;DHT22;70321;43.592;1.456;2023-07-30T11:06:21;24.51;60.33
65584;DHT22;70321;43.592;1.456;2023-07-30T11:08:48;24.61;58.86
65584;DHT22;70321;43.592;1.456;2023-07-30T11:11:15;24.65;57.20
65584;DHT22;70321;43.592;1.456;2023-07-30T11:13:46;24.58;56.02
65584;DHT22;70321;43.592;1.456;2023-07-30T11:16:14;24.63;56.58
65584;DHT22;70321;43.592;1.456;2023-07-30T11:18:42;24.74;56.96
65584;DHT22;70321;43.592;1.456;2023-07-30T11:21:15;24.78;55.84
65584;DHT22;70321;43.592;1.456;2023-07-30T11:23:43;24.84;56.43
65584;DHT22;70321;43.592;1.456;2023-07-30T11:26:18;24.85;56.19
65584;DHT22;70321;43.592;1.456;2023-07-30T11:28:46;24.82;55.84
65584;DHT22;70321;43.592;1.456;2023-07-30T11:31:15;24.92;56.73
65584;DHT22;70321;43.592;1.456;2023-07-30T11:33:47;24.99;57.30
65584;DHT22;70321;43.592;1.456;2023-07-30T11:36:18;25.09;57.73
65584;DHT22;70321;43.592;1.456;2023-07-30T11:38:46;25.22;57.85
65584;DHT22;70321;43.592;1.456;2023-07-30T11:41:13;25.33;55.57
65584;DHT22;70321;43.592;1.456;2023-07-30T11:43:44;25.41;55.76
65584;DHT22;70321;43.592;1.456;2023-07-30T11:46:16;25.33;55.34
65584;DHT22;70321;43.592;1.456;2023-07-30T11:48:48;25.25;54.68
65584;DHT22;70321;43.592;1.456;2023-07-30T11:51:28;25.21;54.93
65584;DHT22;70321;43.592;1.456;2023-07-30T11:53:59;25.29;55.47
65584;DHT22;70321;43.592;1.456;2023-07-30T11:56:29;25.33;53.91
65584;DHT22;70321;43.592;1.456;2023-07-30T11:58:58;25.41;55.45
65584;DHT22;70321;43.592;1.456;2023-07-30T12:01:26;25.43;53.34
65584;DHT22;70321;43.592;1.456;2023-07-30T12:03:55;25.50;54.12
65584;DHT22;70321;43.592;1.456;2023-07-30T12:06:22;25.56;54.22
65584;DHT22;70321;43.592;1.456;2023-07-30T12:08:49;25.69;53.76
65584;DHT22;70321;43.592;1.456;2023-07-30T12:11:18;25.75;54.06
65584;DHT22;70321;43.592;1.456;2023-07-30T12:13:47;25.87;53.19
65584;DHT22;70321;43.592;1.456;2023-07-30T12:16:14;25.98;53.10
65584;DHT22;70321;43.592;1.456;2023-07-30T12:18:42;25.94;52.62
65584;DHT22;70321;43.592;1.456;2023-07-30T12:21:09;26.00;52.63
65584;DHT22;70321;43.592;1.456;2023-07-30T12:23:37;25.94;52.91
65584;DHT22;70321;43.592;1.456;2023-07-30T12:26:05;25.98;53.15
65584;DHT22;70321;43.592;1.456;2023-07-30T12:28:34;25.98;53.75
65584;DHT22;70321;43.592;1.456;2023-07-30T12:31:01;26.03;53.78
65584;DHT22;70321;43.592;1.456;2023-07-30T12:33:28;26.12;55.34
65584;DHT22;70321;43.592;1.456;2023-07-30T12:35:55;26.21;55.23
65584;DHT22;70321;43.592;1.456;2023-07-30T12:38:22;26.36;54.02
65584;DHT22;70321;43.592;1.456;2023-07-30T12:40:48;26.50;51.46
65584;DHT22;70321;43.592;1.456;2023-07-30T12:43:17;26.57;50.74
65584;DHT22;70321;43.592;1.456;2023-07-30T12:45:45;26.51;50.42
65584;DHT22;70321;43.592;1.456;2023-07-30T12:48:13;26.51;52.25
65584;DHT22;70321;43.592;1.456;2023-07-30T12:50:40;26.55;52.09
65584;DHT22;70321;43.592;1.456;2023-07-30T12:53:06;26.55;50.56
65584;DHT22;70321;43.592;1.456;2023-07-30T12:55:33;26.58;52.13
65584;DHT22;70321;43.592;1.456;2023-07-30T12:58:00;26.55;51.13
65584;DHT22;70321;43.592;1.456;2023-07-30T13:00:27;26.64;51.21
65584;DHT22;70321;43.592;1.456;2023-07-30T13:02:53;26.62;51.20
65584;DHT22;70321;43.592;1.456;2023-07-30T13:05:22;26.51;51.57
65584;DHT22;70321;43.592;1.456;2023-07-30T13:07:49;26.45;51.04
65584;DHT22;70321;43.592;1.456;2023-07-30T13:10:16;26.51;53.46
65584;DHT22;70321;43.592;1.456;2023-07-30T13:12:43;26.48;51.03
65584;DHT22;70321;43.592;1.456;2023-07-30T13:15:09;26.45;52.33
65584;DHT22;70321;43.592;1.456;2023-07-30T13:17:37;26.44;52.47
65584;DHT22;70321;43.592;1.456;2023-07-30T13:20:05;26.45;54.35
65584;DHT22;70321;43.592;1.456;2023-07-30T13:22:32;26.52;53.54
65584;DHT22;70321;43.592;1.456;2023-07-30T13:24:59;26.64;53.37
65584;DHT22;70321;43.592;1.456;2023-07-30T13:27:26;26.71;53.89
65584;DHT22;70321;43.592;1.456;2023-07-30T13:29:52;26.71;50.59
65584;DHT22;70321;43.592;1.456;2023-07-30T13:32:19;26.75;53.89
65584;DHT22;70321;43.592;1.456;2023-07-30T13:34:46;26.90;54.23
65584;DHT22;70321;43.592;1.456;2023-07-30T13:37:12;27.02;52.22
65584;DHT22;70321;43.592;1.456;2023-07-30T13:39:39;27.08;50.68
65584;DHT22;70321;43.592;1.456;2023-07-30T13:42:06;26.99;48.95
65584;DHT22;70321;43.592;1.456;2023-07-30T13:44:33;26.82;49.87
65584;DHT22;70321;43.592;1.456;2023-07-30T13:47:00;26.74;51.14
65584;DHT22;70321;43.592;1.456;2023-07-30T13:49:27;26.70;52.50
65584;DHT22;70321;43.592;1.456;2023-07-30T13:51:53;26.65;52.42
65584;DHT22;70321;43.592;1.456;2023-07-30T13:54:20;26.65;53.93
65584;DHT22;70321;43.592;1.456;2023-07-30T13:56:47;26.67;51.60
65584;DHT22;70321;43.592;1.456;2023-07-30T13:59:13;26.68;52.94
65584;DHT22;70321;43.592;1.456;2023-07-30T14:01:40;26.77;53.15
65584;DHT22;70321;43.592;1.456;2023-07-30T14:04:07;26.87;52.47
65584;DHT22;70321;43.592;1.456;2023-07-30T14:06:34;26.88;49.63
65584;DHT22;70321;43.592;1.456;2023-07-30T14:09:01;26.92;50.24
65584;DHT22;70321;43.592;1.456;2023-07-30T14:11:28;26.85;50.53
65584;DHT22;70321;43.592;1.456;2023-07-30T14:13:54;26.81;51.25
65584;DHT22;70321;43.592;1.456;2023-07-30T14:16:22;26.77;52.88
65584;DHT22;70321;43.592;1.456;2023-07-30T14:18:49;26.70;52.15
65584;DHT22;70321;43.592;1.456;2023-07-30T14:21:15;26.65;52.02
65584;DHT22;70321;43.592;1.456;2023-07-30T14:23:42;26.71;50.51
65584;DHT22;70321;43.592;1.456;2023-07-30T14:26:09;26.78;50.63
65584;DHT22;70321;43.592;1.456;2023-07-30T14:28:36;26.91;50.35
65584;DHT22;70321;43.592;1.456;2023-07-30T14:31:02;26.95;51.35
65584;DHT22;70321;43.592;1.456;2023-07-30T14:33:29;27.01;53.66
65584;DHT22;70321;43.592;1.456;2023-07-30T14:35:56;26.99;52.11
65584;DHT22;70321;43.592;1.456;2023-07-30T14:38:23;26.95;52.45
65584;DHT22;70321;43.592;1.456;2023-07-30T14:40:50;26.88;52.66
65584;DHT22;70321;43.592;1.456;2023-07-30T14:43:16;26.77;51.87
65584;DHT22;70321;43.592;1.456;2023-07-30T14:45:43;26.65;51.20
65584;DHT22;70321;43.592;1.456;2023-07-30T14:48:10;26.51;52.23
65584;DHT22;70321;43.592;1.456;2023-07-30T14:50:36;26.44;52.70
65584;DHT22;70321;43.592;1.456;2023-07-30T14:53:03;26.45;52.42
65584;DHT22;70321;43.592;1.456;2023-07-30T14:55:30;26.44;51.08
65584;DHT22;70321;43.592;1.456;2023-07-30T14:57:57;26.50;53.21
65584;DHT22;70321;43.592;1.456;2023-07-30T15:00:23;26.57;51.21
65584;DHT22;70321;43.592;1.456;2023-07-30T15:02:52;26.58;52.58
65584;DHT22;70321;43.592;1.456;2023-07-30T15:05:20;26.64;52.52
65584;DHT22;70321;43.592;1.456;2023-07-30T15:07:46;26.60;50.75
65584;DHT22;70321;43.592;1.456;2023-07-30T15:10:13;26.62;52.40
65584;DHT22;70321;43.592;1.456;2023-07-30T15:12:40;26.68;51.44
65584;DHT22;70321;43.592;1.456;2023-07-30T15:15:07;26.71;50.59
65584;DHT22;70321;43.592;1.456;2023-07-30T15:17:34;26.72;51.02
65584;DHT22;70321;43.592;1.456;2023-07-30T15:20:01;26.81;51.38
65584;DHT22;70321;43.592;1.456;2023-07-30T15:22:28;26.88;53.23
65584;DHT22;70321;43.592;1.456;2023-07-30T15:24:54;26.95;50.66
65584;DHT22;70321;43.592;1.456;2023-07-30T15:27:21;26.98;49.88
65584;DHT22;70321;43.592;1.456;2023-07-30T15:29:48;26.94;50.03
65584;DHT22;70321;43.592;1.456;2023-07-30T15:32:15;26.91;49.54
65584;DHT22;70321;43.592;1.456;2023-07-30T15:34:41;26.92;51.31